createdAt,value
2019-03-01T00:00:09.445Z,0.00
2019-03-01T00:01:09.485Z,0.00
2019-03-01T00:02:09.438Z,0.00
2019-03-01T00:03:09.452Z,0.00
2019-03-01T00:04:09.920Z,0.00
2019-03-01T00:05:09.402Z,0.00
2019-03-01T00:06:09.379Z,0.00
2019-03-01T00:07:16.952Z,0.00
2019-03-01T00:10:06.097Z,0.00
2019-03-01T00:13:03.943Z,0.00
2019-03-01T00:14:03.022Z,0.00
2019-03-01T00:15:02.915Z,0.00
2019-03-01T00:16:02.970Z,0.00
2019-03-01T00:17:02.946Z,0.00
2019-03-01T00:18:03.729Z,0.00
2019-03-01T00:19:02.837Z,0.00
2019-03-01T00:20:02.952Z,0.00
2019-03-01T00:21:02.815Z,0.00
2019-03-01T00:22:02.821Z,0.00
2019-03-01T00:23:02.780Z,0.00
2019-03-01T00:24:02.739Z,0.00
2019-03-01T00:25:02.796Z,0.00
2019-03-01T00:26:02.667Z,0.00
2019-03-01T00:27:02.754Z,0.00
2019-03-01T00:28:02.812Z,0.00
2019-03-01T00:29:02.649Z,0.00
2019-03-01T00:30:02.663Z,0.00
2019-03-01T00:31:02.728Z,0.00
2019-03-01T00:32:03.368Z,0.00
2019-03-01T00:33:02.629Z,0.00
2019-03-01T00:34:02.541Z,0.00
2019-03-01T00:35:02.511Z,0.00
2019-03-01T00:36:02.491Z,0.00
2019-03-01T00:37:02.432Z,0.00
2019-03-01T00:38:02.483Z,0.00
2019-03-01T00:39:03.219Z,0.00
2019-03-01T00:40:02.411Z,0.00
2019-03-01T00:41:02.440Z,0.00
2019-03-01T00:42:02.390Z,0.00
2019-03-01T00:43:02.283Z,0.00
2019-03-01T00:44:03.301Z,0.00
2019-03-01T00:45:02.305Z,0.00
2019-03-01T00:46:02.258Z,0.00
2019-03-01T00:47:02.315Z,0.00
2019-03-01T00:48:02.235Z,0.00
2019-03-01T00:49:02.164Z,0.00
2019-03-01T00:50:02.222Z,0.00
2019-03-01T00:51:02.156Z,0.00
2019-03-01T00:52:02.112Z,0.00
2019-03-01T00:53:02.124Z,0.00
2019-03-01T00:54:02.053Z,0.00
2019-03-01T00:55:01.995Z,0.00
2019-03-01T00:56:02.066Z,0.00
2019-03-01T00:57:01.984Z,0.00
2019-03-01T00:58:01.995Z,0.00
2019-03-01T00:59:02.015Z,0.00
2019-03-01T01:00:01.930Z,0.00
2019-03-01T01:01:02.048Z,0.00
2019-03-01T01:02:01.885Z,0.00
2019-03-01T01:03:03.727Z,0.00
2019-03-01T01:04:01.911Z,0.00
2019-03-01T01:05:01.821Z,0.00
2019-03-01T01:06:02.760Z,0.00
2019-03-01T01:07:01.830Z,0.00
2019-03-01T01:08:01.746Z,0.00
2019-03-01T01:09:01.735Z,0.00
2019-03-01T01:10:01.662Z,0.00
2019-03-01T01:11:01.732Z,0.00
2019-03-01T01:12:01.688Z,0.00
2019-03-01T01:13:01.647Z,0.00
2019-03-01T01:14:01.599Z,0.00
2019-03-01T01:15:01.553Z,0.00
2019-03-01T01:16:01.590Z,0.00
2019-03-01T01:17:01.572Z,0.00
2019-03-01T01:18:01.491Z,0.00
2019-03-01T01:19:01.527Z,0.00
2019-03-01T01:20:01.459Z,0.00
2019-03-01T01:21:02.245Z,0.00
2019-03-01T01:22:01.541Z,0.00
2019-03-01T01:23:01.388Z,0.00
2019-03-01T01:24:01.406Z,0.00
2019-03-01T01:25:01.407Z,0.00
2019-03-01T01:26:01.433Z,0.00
2019-03-01T01:27:01.305Z,0.00
2019-03-01T01:28:01.275Z,0.00
2019-03-01T01:29:01.431Z,0.00
2019-03-01T01:30:01.247Z,0.00
2019-03-01T01:31:01.661Z,0.00
2019-03-01T01:32:01.189Z,0.00
2019-03-01T01:33:01.851Z,0.00
2019-03-01T01:34:01.360Z,0.00
2019-03-01T01:35:01.136Z,0.00
2019-03-01T01:36:01.149Z,0.00
2019-03-01T01:37:01.134Z,0.00
2019-03-01T01:38:01.016Z,0.00
2019-03-01T01:39:01.060Z,0.00
2019-03-01T01:40:01.027Z,0.00
2019-03-01T01:41:01.010Z,0.00
2019-03-01T01:42:01.019Z,0.00
2019-03-01T01:43:00.970Z,0.00
2019-03-01T01:44:00.940Z,0.00
2019-03-01T01:45:00.962Z,0.00
2019-03-01T01:46:01.032Z,0.00
2019-03-01T01:47:02.789Z,0.00
2019-03-01T01:48:01.820Z,0.00
2019-03-01T01:49:00.820Z,0.00
2019-03-01T01:50:00.867Z,0.00
2019-03-01T01:51:00.734Z,0.00
2019-03-01T01:52:00.880Z,0.00
2019-03-01T01:53:00.715Z,0.00
2019-03-01T01:54:00.695Z,0.00
2019-03-01T01:55:00.913Z,0.00
2019-03-01T01:56:00.688Z,0.00
2019-03-01T01:57:00.556Z,0.00
2019-03-01T01:58:00.625Z,0.00
2019-03-01T01:59:00.527Z,0.00
2019-03-01T02:00:00.547Z,0.00
2019-03-01T02:01:01.276Z,0.00
2019-03-01T02:02:00.482Z,0.00
2019-03-01T02:03:00.555Z,0.00
2019-03-01T02:04:00.471Z,0.00
2019-03-01T02:05:00.441Z,0.00
2019-03-01T02:06:00.420Z,0.00
2019-03-01T02:07:00.327Z,0.00
2019-03-01T02:08:00.379Z,0.00
2019-03-01T02:09:00.319Z,0.00
2019-03-01T02:10:01.379Z,0.00
2019-03-01T02:11:00.216Z,0.00
2019-03-01T02:12:00.316Z,0.00
2019-03-01T02:13:00.209Z,0.00
2019-03-01T02:14:00.214Z,0.00
2019-03-01T02:15:00.322Z,0.00
2019-03-01T02:16:00.159Z,0.00
2019-03-01T02:17:00.068Z,0.00
2019-03-01T02:18:00.079Z,0.00
2019-03-01T02:19:00.148Z,0.00
2019-03-01T02:20:00.112Z,0.00
2019-03-01T02:21:00.098Z,0.00
2019-03-01T02:22:00.019Z,0.00
2019-03-01T02:23:00.030Z,0.00
2019-03-01T02:24:00.013Z,0.00
2019-03-01T02:24:59.925Z,0.00
2019-03-01T02:25:59.894Z,0.00
2019-03-01T02:27:00.047Z,0.00
2019-03-01T02:28:08.313Z,0.00
2019-03-01T02:29:53.204Z,0.00
2019-03-01T02:30:53.229Z,0.00
2019-03-01T02:31:53.129Z,0.00
2019-03-01T02:32:53.109Z,0.00
2019-03-01T02:33:53.813Z,0.00
2019-03-01T02:34:53.059Z,0.00
2019-03-01T02:35:53.028Z,0.00
2019-03-01T02:36:53.006Z,0.00
2019-03-01T02:37:52.939Z,0.00
2019-03-01T02:38:53.028Z,0.00
2019-03-01T02:39:52.950Z,0.00
2019-03-01T02:40:52.987Z,0.00
2019-03-01T02:41:52.958Z,0.00
2019-03-01T02:42:52.900Z,0.00
2019-03-01T02:43:52.801Z,0.00
2019-03-01T02:44:54.781Z,0.00
2019-03-01T02:45:52.774Z,0.00
2019-03-01T02:46:52.791Z,0.00
2019-03-01T02:47:52.761Z,0.00
2019-03-01T02:48:52.761Z,0.00
2019-03-01T02:49:53.340Z,0.00
2019-03-01T02:50:52.727Z,0.00
2019-03-01T02:51:52.751Z,0.00
2019-03-01T02:52:52.756Z,0.00
2019-03-01T02:53:52.608Z,0.00
2019-03-01T02:54:52.535Z,0.00
2019-03-01T02:55:52.572Z,0.00
2019-03-01T02:56:53.253Z,0.00
2019-03-01T02:57:52.504Z,0.00
2019-03-01T02:58:52.497Z,0.00
2019-03-01T02:59:52.543Z,0.00
2019-03-01T03:00:52.459Z,0.00
2019-03-01T03:01:52.554Z,0.00
2019-03-01T03:02:52.490Z,0.00
2019-03-01T03:03:52.406Z,0.00
2019-03-01T03:04:52.390Z,0.00
2019-03-01T03:05:53.306Z,0.00
2019-03-01T03:06:52.308Z,0.00
2019-03-01T03:07:52.325Z,0.00
2019-03-01T03:08:52.358Z,0.00
2019-03-01T03:09:52.283Z,0.00
2019-03-01T03:10:52.353Z,0.00
2019-03-01T03:11:52.261Z,0.00
2019-03-01T03:12:52.267Z,0.00
2019-03-01T03:13:52.178Z,0.00
2019-03-01T03:14:52.107Z,0.00
2019-03-01T03:15:52.574Z,0.00
2019-03-01T03:16:52.179Z,0.00
2019-03-01T03:17:52.011Z,0.00
2019-03-01T03:18:52.079Z,0.00
2019-03-01T03:19:52.771Z,0.00
2019-03-01T03:20:51.921Z,0.00
2019-03-01T03:21:51.894Z,0.00
2019-03-01T03:22:51.958Z,0.00
2019-03-01T03:23:51.926Z,0.00
2019-03-01T03:24:51.950Z,0.00
2019-03-01T03:25:51.919Z,0.00
2019-03-01T03:26:52.719Z,0.00
2019-03-01T03:27:52.850Z,0.00
2019-03-01T03:28:51.919Z,0.00
2019-03-01T03:29:51.769Z,0.00
2019-03-01T03:30:51.694Z,0.00
2019-03-01T03:31:52.291Z,0.00
2019-03-01T03:32:51.687Z,0.00
2019-03-01T03:33:59.485Z,0.00
2019-03-01T03:35:46.475Z,0.00
2019-03-01T03:36:46.521Z,0.00
2019-03-01T03:38:39.805Z,0.00
2019-03-01T03:39:39.773Z,0.00
2019-03-01T03:41:34.538Z,0.00
2019-03-01T03:42:34.468Z,0.00
2019-03-01T03:43:34.455Z,0.00
2019-03-01T03:44:34.486Z,0.00
2019-03-01T03:45:34.440Z,0.00
2019-03-01T03:46:34.433Z,0.00
2019-03-01T03:47:34.402Z,0.00
2019-03-01T03:48:36.278Z,0.00
2019-03-01T03:49:34.311Z,0.00
2019-03-01T03:50:34.466Z,0.00
2019-03-01T03:51:34.322Z,0.00
2019-03-01T03:52:34.280Z,0.00
2019-03-01T03:53:34.300Z,0.00
2019-03-01T03:54:34.418Z,0.00
2019-03-01T03:55:34.194Z,0.00
2019-03-01T03:56:34.138Z,0.00
2019-03-01T03:57:34.134Z,0.00
2019-03-01T03:58:34.151Z,0.00
2019-03-01T03:59:34.208Z,0.00
2019-03-01T04:00:34.067Z,0.00
2019-03-01T04:01:34.017Z,0.00
2019-03-01T04:02:34.093Z,0.00
2019-03-01T04:03:34.040Z,0.00
2019-03-01T04:04:34.054Z,0.00
2019-03-01T04:05:33.938Z,0.00
2019-03-01T04:06:33.917Z,0.00
2019-03-01T04:07:33.912Z,0.00
2019-03-01T04:08:33.828Z,0.00
2019-03-01T04:09:33.904Z,0.00
2019-03-01T04:10:33.862Z,0.00
2019-03-01T04:11:33.745Z,0.00
2019-03-01T04:12:33.801Z,0.00
2019-03-01T04:13:33.804Z,0.00
2019-03-01T04:14:34.581Z,0.00
2019-03-01T04:15:33.737Z,0.00
2019-03-01T04:16:33.658Z,0.00
2019-03-01T04:17:33.666Z,0.00
2019-03-01T04:18:33.748Z,0.00
2019-03-01T04:19:33.635Z,0.00
2019-03-01T04:20:34.147Z,0.00
2019-03-01T04:21:33.668Z,0.00
2019-03-01T04:22:33.573Z,0.00
2019-03-01T04:23:33.626Z,0.00
2019-03-01T04:24:33.466Z,0.00
2019-03-01T04:25:33.443Z,0.00
2019-03-01T04:26:33.430Z,0.00
2019-03-01T04:27:33.528Z,0.00
2019-03-01T04:28:33.389Z,0.00
2019-03-01T04:29:33.324Z,0.00
2019-03-01T04:30:33.473Z,0.00
2019-03-01T04:31:33.287Z,0.00
2019-03-01T04:32:34.143Z,0.00
2019-03-01T04:33:33.245Z,0.00
2019-03-01T04:34:33.245Z,0.00
2019-03-01T04:35:33.203Z,0.00
2019-03-01T04:36:33.268Z,0.00
2019-03-01T04:37:33.241Z,0.00
2019-03-01T04:38:33.273Z,0.00
2019-03-01T04:39:33.156Z,0.00
2019-03-01T04:40:33.096Z,0.00
2019-03-01T04:41:33.021Z,0.00
2019-03-01T04:42:33.642Z,0.00
2019-03-01T04:43:33.104Z,0.00
2019-03-01T04:44:33.119Z,0.00
2019-03-01T04:45:32.943Z,4.00
2019-03-01T04:46:33.047Z,4.00
2019-03-01T04:47:33.563Z,4.00
2019-03-01T04:48:32.883Z,0.00
2019-03-01T04:49:32.866Z,0.00
2019-03-01T04:50:41.126Z,4.00
2019-03-01T04:52:26.753Z,4.00
2019-03-01T04:53:26.102Z,4.00
2019-03-01T04:54:26.200Z,4.00
2019-03-01T04:55:26.036Z,8.00
2019-03-01T04:56:26.025Z,8.00
2019-03-01T04:57:26.123Z,8.00
2019-03-01T04:58:25.999Z,8.00
2019-03-01T04:59:25.962Z,8.00
2019-03-01T05:00:26.064Z,12.00
2019-03-01T05:01:25.908Z,12.00
2019-03-01T05:02:25.902Z,16.00
2019-03-01T05:03:25.886Z,16.00
2019-03-01T05:04:25.883Z,20.00
2019-03-01T05:05:25.806Z,24.00
2019-03-01T05:06:25.864Z,24.00
2019-03-01T05:07:25.853Z,32.00
2019-03-01T05:08:25.827Z,32.00
2019-03-01T05:09:25.701Z,36.00
2019-03-01T05:10:25.723Z,44.00
2019-03-01T05:11:25.686Z,48.00
2019-03-01T05:12:25.656Z,56.00
2019-03-01T05:13:25.705Z,60.00
2019-03-01T05:14:25.645Z,64.00
2019-03-01T05:15:25.591Z,76.00
2019-03-01T05:16:25.669Z,84.00
2019-03-01T05:17:25.553Z,96.00
2019-03-01T05:18:25.502Z,100.00
2019-03-01T05:19:25.485Z,112.00
2019-03-01T05:20:25.459Z,128.00
2019-03-01T05:21:25.460Z,136.00
2019-03-01T05:22:25.517Z,152.00
2019-03-01T05:23:25.361Z,160.00
2019-03-01T05:24:25.377Z,176.00
2019-03-01T05:25:25.348Z,192.00
2019-03-01T05:26:25.312Z,208.00
2019-03-01T05:27:25.269Z,224.00
2019-03-01T05:28:25.247Z,244.00
2019-03-01T05:29:25.216Z,260.00
2019-03-01T05:30:25.258Z,284.00
2019-03-01T05:31:25.204Z,300.00
2019-03-01T05:32:25.226Z,320.00
2019-03-01T05:33:25.143Z,344.00
2019-03-01T05:34:26.840Z,364.00
2019-03-01T05:35:25.067Z,388.00
2019-03-01T05:36:25.023Z,416.00
2019-03-01T05:37:25.726Z,440.00
2019-03-01T05:38:25.125Z,464.00
2019-03-01T05:39:25.039Z,496.00
2019-03-01T05:40:25.325Z,524.00
2019-03-01T05:41:24.948Z,552.00
2019-03-01T05:42:25.009Z,584.00
2019-03-01T05:43:24.937Z,616.00
2019-03-01T05:44:24.861Z,652.00
2019-03-01T05:45:24.928Z,692.00
2019-03-01T05:46:24.935Z,748.00
2019-03-01T05:47:24.945Z,816.00
2019-03-01T05:48:24.787Z,876.00
2019-03-01T05:49:25.345Z,928.00
2019-03-01T05:50:24.865Z,964.00
2019-03-01T05:51:24.767Z,1004.00
2019-03-01T05:52:24.663Z,1080.00
2019-03-01T05:53:24.678Z,1180.00
2019-03-01T05:54:24.575Z,1292.00
2019-03-01T05:55:24.541Z,1440.00
2019-03-01T05:56:24.558Z,1600.00
2019-03-01T05:57:24.650Z,1732.00
2019-03-01T05:58:24.561Z,1848.00
2019-03-01T05:59:24.545Z,1948.00
2019-03-01T06:00:24.567Z,2028.00
2019-03-01T06:01:24.585Z,2108.00
2019-03-01T06:02:24.414Z,2184.00
2019-03-01T06:03:24.452Z,2268.00
2019-03-01T06:04:24.382Z,2344.00
2019-03-01T06:05:25.027Z,2432.00
2019-03-01T06:06:24.706Z,2508.00
2019-03-01T06:07:24.374Z,2588.00
2019-03-01T06:08:24.388Z,2696.00
2019-03-01T06:09:25.291Z,2804.00
2019-03-01T06:10:24.685Z,2900.00
2019-03-01T06:11:24.306Z,2988.00
2019-03-01T06:12:24.357Z,3128.00
2019-03-01T06:13:24.327Z,3272.00
2019-03-01T06:15:24.187Z,3504.00
2019-03-01T06:16:24.402Z,3624.00
2019-03-01T06:17:24.827Z,3764.00
2019-03-01T06:18:24.121Z,3888.00
2019-03-01T06:19:24.482Z,4008.00
2019-03-01T06:20:24.291Z,4124.00
2019-03-01T06:21:25.577Z,4452.00
2019-03-01T06:22:23.999Z,4312.00
2019-03-01T06:23:24.412Z,4108.00
2019-03-01T06:24:24.362Z,3980.00
2019-03-01T06:25:24.143Z,4140.00
2019-03-01T06:27:24.203Z,5184.00
2019-03-01T06:28:24.264Z,5484.00
2019-03-01T06:29:24.136Z,5708.00
2019-03-01T06:30:24.053Z,5740.00
2019-03-01T06:31:24.024Z,5784.00
2019-03-01T06:32:23.920Z,6004.00
2019-03-01T06:33:23.906Z,6128.00
2019-03-01T06:34:24.186Z,6468.00
2019-03-01T06:35:23.825Z,6716.00
2019-03-01T06:36:24.101Z,6896.00
2019-03-01T06:37:23.734Z,7112.00
2019-03-01T06:38:23.803Z,7108.00
2019-03-01T06:39:23.732Z,7212.00
2019-03-01T06:40:23.721Z,7368.00
2019-03-01T06:41:23.905Z,7708.00
2019-03-01T06:42:25.744Z,8012.00
2019-03-01T06:44:23.760Z,8488.00
2019-03-01T06:45:25.617Z,8716.00
2019-03-01T06:46:24.628Z,8876.00
2019-03-01T06:47:23.796Z,8940.00
2019-03-01T06:48:23.703Z,9204.00
2019-03-01T06:49:25.583Z,9480.00
2019-03-01T06:50:23.635Z,9628.00
2019-03-01T06:51:28.909Z,9832.00
2019-03-01T06:53:24.039Z,9768.00
2019-03-01T06:54:26.534Z,10004.00
2019-03-01T06:55:24.173Z,10044.00
2019-03-01T06:57:24.411Z,10372.00
2019-03-01T06:58:23.619Z,10524.00
2019-03-01T06:59:23.636Z,10516.00
2019-03-01T07:00:25.938Z,10468.00
2019-03-01T07:01:27.930Z,10724.00
2019-03-01T07:02:27.673Z,10896.00
2019-03-01T07:03:23.955Z,10948.00
2019-03-01T07:04:24.529Z,11100.00
2019-03-01T07:05:23.412Z,11264.00
2019-03-01T07:07:44.372Z,11616.00
2019-03-01T07:08:24.103Z,11828.00
2019-03-01T07:09:23.953Z,11944.00
2019-03-01T07:10:23.242Z,12228.00
2019-03-01T07:11:31.884Z,12404.00
2019-03-01T07:12:23.409Z,12560.00
2019-03-01T07:13:37.966Z,12940.00
2019-03-01T07:14:25.130Z,13152.00
2019-03-01T07:15:23.206Z,13248.00
2019-03-01T07:16:23.292Z,13516.00
2019-03-01T07:17:24.012Z,13796.00
2019-03-01T07:18:25.506Z,14336.00
2019-03-01T07:19:24.863Z,14656.00
2019-03-01T07:20:24.199Z,14656.00
2019-03-01T07:21:23.863Z,14912.00
2019-03-01T07:22:23.862Z,14976.00
2019-03-01T07:23:23.536Z,15136.00
2019-03-01T07:24:23.316Z,15200.00
2019-03-01T07:25:25.114Z,15296.00
2019-03-01T07:26:50.911Z,15296.00
2019-03-01T07:27:24.247Z,15200.00
2019-03-01T07:28:24.009Z,15232.00
2019-03-01T07:29:23.090Z,15392.00
2019-03-01T07:30:22.953Z,15456.00
2019-03-01T07:31:32.006Z,15584.00
2019-03-01T07:32:24.226Z,15616.00
2019-03-01T07:33:38.951Z,15616.00
2019-03-01T07:34:30.070Z,15680.00
2019-03-01T07:35:22.991Z,15616.00
2019-03-01T07:36:26.458Z,15648.00
2019-03-01T07:37:23.135Z,15680.00
2019-03-01T07:38:23.224Z,15904.00
2019-03-01T07:39:24.107Z,16032.00
2019-03-01T07:40:27.130Z,16128.00
2019-03-01T07:41:23.189Z,16256.00
2019-03-01T07:42:39.303Z,16320.00
2019-03-01T07:43:23.963Z,16256.00
2019-03-01T07:44:44.042Z,16448.00
2019-03-01T07:45:25.114Z,16544.00
2019-03-01T07:46:24.063Z,16576.00
2019-03-01T07:47:23.196Z,16672.00
2019-03-01T07:48:26.953Z,16768.00
2019-03-01T07:49:25.918Z,16800.00
2019-03-01T07:50:24.078Z,16864.00
2019-03-01T07:51:23.110Z,16928.00
2019-03-01T07:52:29.121Z,16960.00
2019-03-01T07:53:43.925Z,17024.00
2019-03-01T07:54:25.861Z,17184.00
2019-03-01T07:55:24.881Z,17248.00
2019-03-01T07:56:23.022Z,17472.00
2019-03-01T07:57:24.543Z,17600.00
2019-03-01T07:59:24.872Z,17856.00
2019-03-01T08:00:27.069Z,17856.00
2019-03-01T08:01:25.757Z,17888.00
2019-03-01T08:02:22.955Z,18080.00
2019-03-01T08:03:49.769Z,18240.00
2019-03-01T08:04:23.678Z,18336.00
2019-03-01T08:05:31.069Z,18464.00
2019-03-01T08:06:23.386Z,18624.00
2019-03-01T08:07:29.641Z,18784.00
2019-03-01T08:08:23.301Z,18880.00
2019-03-01T08:09:25.511Z,19040.00
2019-03-01T08:11:28.487Z,19360.00
2019-03-01T08:12:24.858Z,19392.00
2019-03-01T08:13:26.825Z,19520.00
2019-03-01T08:16:25.017Z,19904.00
2019-03-01T08:17:45.165Z,20128.00
2019-03-01T08:22:28.507Z,20352.00
